Contents area

METAR / TAF

Die METAR- und TAF-Liste ist aus technischen Gründen (Verfügbarkeit, Update-Zyklen) nicht für ein Meteo-Briefing gedacht. Benutzen Sie stattdessen skybriefing der Skyguide  oder das TAMSI (MeteoSchweiz-eigene Meteo Selfbriefing-Plattform für Firmen aus der Aviatik; Anfragen über das

Kontaktformular

METAR Switzerland

METAR     LSZH 071550Z 06006KT 020V090 CAVOK 29/15 Q1020 NOSIG=
METAR     LSZH 071620Z 08006KT 040V110 CAVOK 29/16 Q1020 NOSIG=
METAR     LSGG 071550Z 07007KT 030V100 CAVOK 29/15 Q1019 NOSIG=
METAR     LSGG 071620Z 06006KT CAVOK 30/14 Q1019 NOSIG=
METAR     LFSB 071630Z 02005KT 340V060 CAVOK 32/17 Q1018 NOSIG=
METAR     LSZB 071550Z VRB02KT CAVOK 31/12 Q1019 NOSIG=
METAR     LSZB 071620Z VRB02KT CAVOK 30/12 Q1019 NOSIG=
METAR     LSZA 071550Z AUTO 20008KT CAVOK 30/18 Q1018=
METAR     LSZA 071620Z AUTO 19007KT CAVOK 30/18 Q1018=
METAR     LSZG 071550Z 09005KT CAVOK 29/14 Q1019 NOSIG=
METAR     LSZG 071620Z 09003KT CAVOK 29/15 Q1019 NOSIG=
METAR     LSZR 071550Z AUTO 30006KT CAVOK 28/20 Q1019=
METAR     LSZR 071620Z 30005KT CAVOK 28/19 Q1019 NOSIG RMK M=
METAR     LSGS 071550Z 25015KT CAVOK 31/12 Q1017=
METAR     LSGS 071620Z 25016KT CAVOK 31/12 Q1017=
METAR     LSGC 071550Z 31004KT 260V030 CAVOK 27/11 Q1023 RMK
               CAUTION HIGH DENSITY ALTITUDE=
METAR     LSGC 071620Z 08004KT 040V140 CAVOK 26/14 Q1023 RMK
               CAUTION HIGH DENSITY ALTITUDE=
METAR     LSZC 071550Z AUTO VRB02KT CAVOK 29/17 Q1020=
METAR     LSZC 071620Z AUTO VRB02KT CAVOK 29/19 Q1020=
METAR     LSZL 071550Z AUTO 27005KT 9999NDV NCD 30/18 Q1017 RMK=
METAR     LSZL 071620Z AUTO 26004KT 9999NDV NCD 29/20 Q1017 RMK=
METAR     LSZS 071550Z 22013KT 9999 SCT070 21/13 Q1025 RMK U TL170=
METAR     LSZS 071620Z 22010KT 9999 SCT070 21/12 Q1025 RMK V TL170=
METAR     LSMA 071550Z AUTO 06006KT 020V090 9999NDV NCD 28/18 Q1020
               RMK=
METAR     LSMA 071620Z AUTO 05005KT 9999NDV NCD 28/19 Q1020 RMK=
METAR     LSMD 071550Z AUTO 10004KT 360V140 9999NDV NCD 29/17 Q1020
               RMK=
METAR     LSMD 071620Z AUTO 09006KT 060V120 9999NDV NCD 28/17 Q1020
               RMK=
METAR     LSME 071550Z NIL=
METAR     LSME 071620Z NIL=
METAR     LSMM 071550Z AUTO /////KT ////NDV // NCD ///// Q1020 RMK
               MIS=
METAR     LSMM 071620Z AUTO /////KT ////NDV // NCD ///// Q1020 RMK
               MIS=
METAR     LSMP 071550Z AUTO 02004KT 330V060 9999NDV NCD 29/15 Q1019
               RMK=
METAR     LSMP 071620Z AUTO 01003KT 320V040 9999NDV NCD 29/15 Q1019
               RMK=
Updated on Friday, 07 August 2020, 18:42

TAF Switzerland

TAF     LSZH 071425Z 0715/0821 06006KT CAVOK TX30/0715Z TN14/0804Z
             TX32/0815Z BECMG 0717/0719 VRB03KT BECMG 0801/0803
             9999 MIFG PROB30 0803/0805 2000 BCFG NSC BECMG
             0804/0806 CAVOK BECMG 0809/0812 06007KT BECMG
             0817/0819 VRB03KT=
TAF     LSGG 071425Z 0715/0821 06006KT CAVOK TX30/0715Z TN15/0804Z
             TX32/0815Z=
TAF     LFSB 071100Z 0712/0812 VRB04KT CAVOK TEMPO 0712/0716
             02005KT TEMPO 0716/0721 11006KT TEMPO 0809/0812
             02005KT=
TAF     LSGS 071425Z 0715/0724 25012KT CAVOK BECMG 0718/0720
             VRB03KT=
TAF     LSZA 071425Z 0715/0724 19008KT 9999 FEW060=
TAF     LSZB 071425Z 0715/0724 VRB03KT CAVOK=
TAF     LSZG 071425Z 0715/0724 04003KT CAVOK=
TAF     LSZL 071125Z 0712/0721 25005KT CAVOK TEMPO 0712/0715 9999
             FEW070=
TAF     LSZR 071425Z 0715/0724 29006KT CAVOK TEMPO 0715/0718 9999
             FEW040=
TAF     LSGC 071425Z 0715/0724 VRB03KT CAVOK=
TAF     LSZC 071425Z 0715/0724 11003KT CAVOK=
TAF     LSZS 071425Z 0715/0724 22013KT 9999 FEW070 TX22/0715Z
             PROB30 TEMPO 0715/0718 SHRA FEW070TCU BECMG 0716/0718
             VRB03KT=
TAF     LSMA 070925Z 0710/0816 VRB03KT CAVOK BECMG 0710/0712
             07010KT BECMG 0717/0719 VRB03KT BECMG 0810/0812
             07010KT=
TAF     LSMD 070925Z 0710/0816 05004KT CAVOK=
TAF     LSME 070925Z 0710/0816 03003KT CAVOK=
TAF     LSMM 070925Z 0710/0816 VRB04KT CAVOK=
TAF     LSMP 070925Z 0710/0816 VRB03KT CAVOK=
Updated on Friday, 07 August 2020, 18:03